createdAt,value
2023-04-30T00:04:04.966Z,8.31
2023-04-30T00:07:55.430Z,8.20
2023-04-30T00:11:57.506Z,8.06
2023-04-30T00:22:39.190Z,7.92
2023-04-30T00:26:08.140Z,7.76
2023-04-30T00:29:49.153Z,7.72
2023-04-30T00:33:33.172Z,7.68
2023-04-30T00:37:17.363Z,7.62
2023-04-30T00:40:43.210Z,7.57
2023-04-30T00:44:32.142Z,7.52
2023-04-30T00:47:32.317Z,7.40
2023-04-30T00:51:00.142Z,7.33
2023-04-30T00:54:48.664Z,7.22
2023-04-30T00:58:03.855Z,7.15
2023-04-30T01:00:58.988Z,7.08
2023-04-30T01:04:37.870Z,7.03
2023-04-30T01:08:22.655Z,6.99
2023-04-30T01:11:57.964Z,6.93
2023-04-30T01:16:14.044Z,6.89
2023-04-30T01:20:09.166Z,6.88
2023-04-30T01:24:11.716Z,6.94
2023-04-30T01:28:09.607Z,6.90
2023-04-30T01:31:39.107Z,6.88
2023-04-30T01:35:05.724Z,6.84
2023-04-30T01:38:40.072Z,6.82
2023-04-30T01:42:27.692Z,6.83
2023-04-30T01:46:11.915Z,6.80
2023-04-30T01:49:54.191Z,6.79
2023-04-30T01:53:36.490Z,6.72
2023-04-30T01:57:04.193Z,6.73
2023-04-30T02:00:46.984Z,6.70
2023-04-30T02:04:16.131Z,6.68
2023-04-30T02:11:49.126Z,6.77
2023-04-30T02:15:38.059Z,6.82
2023-04-30T02:19:25.723Z,6.83
2023-04-30T02:23:11.597Z,6.86
2023-04-30T02:26:42.829Z,6.90
2023-04-30T02:30:21.822Z,6.93
2023-04-30T02:34:00.700Z,6.97
2023-04-30T02:37:24.246Z,7.01
2023-04-30T02:41:10.720Z,6.98
2023-04-30T02:44:59.653Z,6.92
2023-04-30T02:48:39.040Z,6.88
2023-04-30T02:52:20.303Z,6.77
2023-04-30T02:55:59.841Z,6.67
2023-04-30T02:59:38.704Z,6.63
2023-04-30T03:03:03.593Z,6.57
2023-04-30T03:06:41.338Z,6.53
2023-04-30T03:10:15.149Z,6.47
2023-04-30T03:14:04.021Z,6.42
2023-04-30T03:17:52.961Z,6.37
2023-04-30T03:21:41.800Z,6.30
2023-04-30T03:25:02.395Z,6.27
2023-04-30T03:28:44.450Z,6.23
2023-04-30T03:32:23.211Z,6.22
2023-04-30T03:35:54.878Z,6.20
2023-04-30T03:39:01.739Z,6.19
2023-04-30T03:42:51.456Z,6.15
2023-04-30T03:46:40.497Z,6.16
2023-04-30T03:50:29.454Z,6.11
2023-04-30T03:54:18.526Z,6.11
2023-04-30T03:58:07.545Z,6.21
2023-04-30T04:01:35.353Z,6.15
2023-04-30T04:05:14.126Z,6.21
2023-04-30T04:09:02.976Z,6.28
2023-04-30T04:12:43.603Z,6.35
2023-04-30T04:16:32.868Z,6.37
2023-04-30T04:20:22.369Z,6.42
2023-04-30T04:24:10.235Z,6.50
2023-04-30T04:27:33.226Z,6.59
2023-04-30T04:31:16.268Z,6.64
2023-04-30T04:34:48.006Z,6.72
2023-04-30T04:38:37.081Z,6.82
2023-04-30T04:42:05.026Z,6.90
2023-04-30T04:45:47.084Z,6.95
2023-04-30T04:49:26.466Z,6.99
2023-04-30T04:53:15.806Z,7.06
2023-04-30T04:56:47.111Z,7.10
2023-04-30T05:00:28.740Z,7.20
2023-04-30T05:04:17.683Z,7.36
2023-04-30T05:07:59.696Z,7.44
2023-04-30T05:11:31.158Z,7.54
2023-04-30T05:14:39.692Z,7.61
2023-04-30T05:18:21.014Z,7.68
2023-04-30T05:21:45.030Z,7.76
2023-04-30T05:25:26.780Z,7.90
2023-04-30T05:29:09.726Z,8.06
2023-04-30T05:32:46.451Z,8.15
2023-04-30T05:36:24.787Z,8.13
2023-04-30T05:39:56.533Z,8.16
2023-04-30T05:43:38.906Z,8.17
2023-04-30T05:47:27.334Z,8.20
2023-04-30T05:50:37.767Z,8.48
2023-04-30T05:54:12.420Z,8.45
2023-04-30T05:57:41.012Z,8.59
2023-04-30T06:01:17.205Z,8.67
2023-04-30T06:04:06.507Z,8.71
2023-04-30T06:07:49.077Z,8.75
2023-04-30T06:11:18.184Z,8.89
2023-04-30T06:15:07.279Z,8.74
2023-04-30T06:18:46.913Z,8.78
2023-04-30T06:22:13.750Z,8.78
2023-04-30T06:25:42.868Z,9.00
2023-04-30T06:29:32.069Z,9.19
2023-04-30T06:33:13.919Z,9.33
2023-04-30T06:36:52.000Z,9.24
2023-04-30T06:40:25.387Z,9.26
2023-04-30T06:43:57.634Z,9.42
2023-04-30T06:47:39.390Z,9.39
2023-04-30T06:50:44.082Z,9.43
2023-04-30T06:54:17.156Z,9.60
2023-04-30T06:58:06.290Z,9.68
2023-04-30T07:01:13.465Z,9.87
2023-04-30T07:03:58.708Z,9.89
2023-04-30T07:06:54.941Z,9.99
2023-04-30T07:09:39.353Z,10.34
2023-04-30T07:13:09.629Z,11.17
2023-04-30T07:16:25.287Z,11.92
2023-04-30T07:20:05.228Z,12.37
2023-04-30T07:23:55.131Z,12.45
2023-04-30T07:27:34.106Z,12.67
2023-04-30T07:31:22.513Z,12.46
2023-04-30T07:34:27.600Z,13.65
2023-04-30T07:38:06.314Z,13.57
2023-04-30T07:41:03.175Z,14.38
2023-04-30T07:44:51.585Z,14.44
2023-04-30T07:48:26.564Z,14.07
2023-04-30T07:52:04.432Z,13.66
2023-04-30T07:55:22.791Z,13.55
2023-04-30T07:58:52.718Z,13.81
2023-04-30T08:02:21.482Z,13.99
2023-04-30T08:05:33.458Z,13.94
2023-04-30T08:08:41.609Z,14.17
2023-04-30T08:12:04.230Z,14.65
2023-04-30T08:15:08.164Z,15.07
2023-04-30T08:18:39.447Z,15.55
2023-04-30T08:21:51.425Z,15.69
2023-04-30T08:24:32.211Z,15.25
2023-04-30T08:27:32.837Z,15.51
2023-04-30T08:31:22.364Z,15.68
2023-04-30T08:34:29.476Z,14.98
2023-04-30T08:37:38.018Z,14.95
2023-04-30T08:40:59.774Z,15.01
2023-04-30T08:44:42.439Z,14.37
2023-04-30T08:48:31.334Z,14.51
2023-04-30T08:52:23.283Z,14.84
2023-04-30T08:56:05.088Z,15.33
2023-04-30T08:59:53.966Z,14.46
2023-04-30T09:03:39.487Z,14.82
2023-04-30T09:07:20.644Z,15.12
2023-04-30T09:11:12.403Z,15.16
2023-04-30T09:15:00.004Z,15.28
2023-04-30T09:18:57.925Z,15.05
2023-04-30T09:22:59.423Z,14.76
2023-04-30T09:26:48.656Z,15.30
2023-04-30T09:30:40.086Z,15.80
2023-04-30T09:34:29.312Z,15.58
2023-04-30T09:38:18.698Z,16.18
2023-04-30T09:42:06.655Z,15.86
2023-04-30T09:45:56.318Z,15.63
2023-04-30T09:49:39.550Z,16.34
2023-04-30T09:53:23.886Z,16.00
2023-04-30T09:56:59.461Z,16.36
2023-04-30T10:00:33.416Z,16.02
2023-04-30T10:03:51.827Z,15.33
2023-04-30T10:07:41.016Z,15.77
2023-04-30T10:11:30.545Z,16.15
2023-04-30T10:15:19.967Z,16.48
2023-04-30T10:19:14.856Z,16.55
2023-04-30T10:22:57.230Z,17.00
2023-04-30T10:26:46.610Z,16.80
2023-04-30T10:30:36.545Z,17.13
2023-04-30T10:34:31.265Z,17.12
2023-04-30T10:38:35.421Z,17.20
2023-04-30T10:42:05.264Z,16.18
2023-04-30T10:45:48.273Z,17.19
2023-04-30T10:49:37.938Z,18.11
2023-04-30T10:53:27.720Z,17.37
2023-04-30T10:57:08.536Z,16.79
2023-04-30T11:01:09.481Z,17.94
2023-04-30T11:05:04.512Z,17.51
2023-04-30T11:09:00.068Z,16.57
2023-04-30T11:12:52.451Z,16.24
2023-04-30T11:16:35.886Z,16.08
2023-04-30T11:20:26.359Z,16.14
2023-04-30T11:24:15.708Z,17.81
2023-04-30T11:28:07.705Z,18.02
2023-04-30T11:31:38.753Z,17.35
2023-04-30T11:35:22.186Z,17.35
2023-04-30T11:39:08.842Z,17.94
2023-04-30T11:42:52.398Z,17.52
2023-04-30T11:46:53.524Z,18.78
2023-04-30T11:50:30.466Z,18.20
2023-04-30T11:54:19.966Z,18.07
2023-04-30T11:58:09.540Z,17.67
2023-04-30T12:01:59.777Z,17.74
2023-04-30T12:05:57.858Z,16.99
2023-04-30T12:09:48.181Z,16.52
2023-04-30T12:13:38.312Z,17.16
2023-04-30T12:17:27.868Z,17.04
2023-04-30T12:21:38.701Z,16.89
2023-04-30T12:25:36.803Z,17.65
2023-04-30T12:29:27.661Z,17.49
2023-04-30T12:33:23.033Z,16.95
2023-04-30T12:37:11.409Z,16.23
2023-04-30T12:41:01.423Z,17.25
2023-04-30T12:45:05.328Z,17.96
2023-04-30T12:48:55.617Z,18.36
2023-04-30T12:52:49.102Z,19.12
2023-04-30T12:56:48.562Z,18.69
2023-04-30T13:05:04.464Z,18.34
2023-04-30T13:09:05.274Z,17.74
2023-04-30T13:13:35.266Z,17.23
2023-04-30T13:18:04.590Z,17.86
2023-04-30T13:22:34.090Z,17.08
2023-04-30T13:26:41.549Z,18.07
2023-04-30T13:30:17.345Z,18.36
2023-04-30T13:34:01.728Z,18.08
2023-04-30T13:38:32.425Z,18.15
2023-04-30T13:46:38.355Z,17.83
2023-04-30T13:50:30.777Z,17.98
2023-04-30T13:54:52.106Z,17.20
2023-04-30T13:58:35.162Z,18.39
2023-04-30T14:02:15.300Z,17.24
2023-04-30T14:06:27.360Z,16.96
2023-04-30T14:24:43.831Z,17.27
2023-04-30T14:28:27.850Z,17.33
2023-04-30T14:33:03.003Z,17.12
2023-04-30T14:37:30.820Z,16.77
2023-04-30T14:41:47.917Z,17.34
2023-04-30T14:49:14.231Z,17.55
2023-04-30T14:53:39.475Z,18.68
2023-04-30T15:01:50.697Z,18.98
2023-04-30T15:06:02.985Z,19.43
2023-04-30T15:09:21.708Z,18.88
2023-04-30T15:13:22.964Z,18.23
2023-04-30T15:21:48.939Z,18.22
2023-04-30T15:32:38.589Z,18.69
2023-04-30T15:47:30.380Z,19.52
2023-04-30T15:50:57.445Z,19.33
2023-04-30T15:54:42.069Z,18.39
2023-04-30T15:58:42.821Z,18.91
2023-04-30T16:06:38.529Z,19.25
2023-04-30T16:11:04.720Z,18.70
2023-04-30T16:15:22.381Z,19.13
2023-04-30T16:19:04.624Z,18.92
2023-04-30T16:22:38.961Z,18.84
2023-04-30T16:29:27.580Z,18.52
2023-04-30T16:33:38.903Z,17.86
2023-04-30T16:37:32.752Z,17.55
2023-04-30T16:41:40.261Z,18.00
2023-04-30T16:46:00.874Z,17.95
2023-04-30T16:50:09.495Z,17.48
2023-04-30T16:53:57.405Z,17.34
2023-04-30T16:57:44.927Z,18.05
2023-04-30T17:01:48.521Z,18.66
2023-04-30T17:05:40.288Z,17.64
2023-04-30T17:09:28.912Z,17.23
2023-04-30T17:13:17.190Z,16.55
2023-04-30T17:16:47.465Z,16.48
2023-04-30T17:20:50.383Z,16.04
2023-04-30T17:24:31.904Z,15.65
2023-04-30T17:28:59.360Z,15.37
2023-04-30T17:33:27.008Z,15.24
2023-04-30T17:37:54.493Z,15.25
2023-04-30T17:42:22.238Z,15.01
2023-04-30T17:46:52.020Z,14.89
2023-04-30T17:51:20.513Z,14.74
2023-04-30T17:55:44.563Z,14.63
2023-04-30T17:59:08.528Z,14.52
2023-04-30T18:02:59.998Z,14.36
2023-04-30T18:06:47.060Z,14.07
2023-04-30T18:10:34.825Z,13.82
2023-04-30T18:14:23.189Z,13.62
2023-04-30T18:18:35.492Z,13.21
2023-04-30T18:22:26.644Z,12.81
2023-04-30T18:26:34.089Z,12.52
2023-04-30T18:31:04.849Z,12.29
2023-04-30T18:35:35.263Z,12.05
2023-04-30T18:39:00.436Z,11.56
2023-04-30T18:43:28.374Z,11.34
2023-04-30T18:52:16.299Z,10.90
2023-04-30T18:56:01.778Z,10.63
2023-04-30T19:00:10.817Z,10.16
2023-04-30T19:04:27.742Z,9.77
2023-04-30T19:08:58.869Z,9.48
2023-04-30T19:12:35.670Z,9.22
2023-04-30T19:16:42.033Z,9.07
2023-04-30T19:20:45.982Z,8.85
2023-04-30T19:24:29.406Z,8.74
2023-04-30T19:28:18.545Z,8.68
2023-04-30T19:32:11.465Z,8.68
2023-04-30T19:35:25.281Z,8.69
2023-04-30T19:39:04.494Z,8.72
2023-04-30T19:43:01.464Z,8.76
2023-04-30T19:46:54.794Z,8.86
2023-04-30T19:54:28.597Z,8.91
2023-04-30T19:58:19.332Z,8.80
2023-04-30T20:01:46.076Z,8.63
2023-04-30T20:05:49.082Z,8.64
2023-04-30T20:09:29.883Z,8.58
2023-04-30T20:13:18.261Z,8.60
2023-04-30T20:17:06.126Z,8.55
2023-04-30T20:20:40.426Z,8.64
2023-04-30T20:28:52.660Z,8.68
2023-04-30T20:32:58.021Z,8.59
2023-04-30T20:37:07.787Z,8.53
2023-04-30T20:40:38.881Z,8.51
2023-04-30T20:49:11.964Z,8.38
2023-04-30T20:52:52.237Z,8.30
2023-04-30T20:56:42.944Z,8.33
2023-04-30T21:00:03.862Z,8.29
2023-04-30T21:04:04.382Z,8.23
2023-04-30T21:08:08.027Z,8.23
2023-04-30T21:11:56.277Z,8.16
2023-04-30T21:15:44.204Z,8.03
2023-04-30T21:19:48.176Z,7.89
2023-04-30T21:23:36.049Z,7.74
2023-04-30T21:27:24.178Z,7.70
2023-04-30T21:31:01.591Z,7.64
2023-04-30T21:35:05.299Z,7.43
2023-04-30T21:39:35.134Z,7.29
2023-04-30T21:43:48.019Z,7.17
2023-04-30T21:48:15.405Z,7.09
2023-04-30T21:52:53.675Z,6.96
2023-04-30T21:57:27.622Z,6.71
2023-04-30T22:01:32.305Z,6.58
2023-04-30T22:06:01.291Z,6.50
2023-04-30T22:14:12.496Z,6.27
2023-04-30T22:20:03.840Z,6.28
2023-04-30T22:24:11.474Z,6.14
2023-04-30T22:28:00.824Z,6.08
2023-04-30T22:31:50.927Z,6.20
2023-04-30T22:35:42.323Z,6.32
2023-04-30T22:39:33.335Z,6.44
2023-04-30T22:43:07.222Z,6.55
2023-04-30T22:47:36.231Z,6.56
2023-04-30T22:52:05.128Z,6.53
2023-04-30T22:56:34.352Z,6.47
2023-04-30T23:01:05.311Z,6.35
2023-04-30T23:08:58.022Z,6.00
2023-04-30T23:12:48.037Z,6.03
2023-04-30T23:16:39.911Z,6.10
2023-04-30T23:20:33.530Z,6.09
2023-04-30T23:23:48.252Z,6.03
2023-04-30T23:27:37.887Z,6.01
2023-04-30T23:31:27.545Z,5.93
2023-04-30T23:39:26.950Z,5.78
2023-04-30T23:48:20.287Z,5.54
2023-04-30T23:52:49.226Z,5.43
2023-04-30T23:57:18.069Z,5.33
